Time;durP1;ratioP1;P1;durP2;ratioP2;P2;SDS_P1;SDS_P2;PMS_P1;PMS_P2;Temp;Humidity;BMP_temperature;BMP_pressure;BME280_temperature;BME280_humidity;BME280_pressure;Samples;Min_cycle;Max_cycle;Signal;HPM_P1;HPM_P2
2022/01/04 00:01:31;;;;;;;8.53;4.50;;;;;;;3.76;87.73;99980.47;1501050;88;21294;-79
2022/01/04 00:03:57;;;;;;;6.67;3.53;;;;;;;3.78;87.66;99976.80;1498977;87;21574;-79
2022/01/04 00:06:23;;;;;;;7.87;4.03;;;;;;;3.75;87.55;99977.51;1506982;89;21331;-79
2022/01/04 00:08:49;;;;;;;9.60;4.50;;;;;;;3.75;87.55;99993.21;1467753;89;21331;-80
2022/01/04 00:11:18;;;;;;;8.90;4.27;;;;;;;3.70;87.65;99984.86;1425681;88;21441;-81
2022/01/04 00:13:44;;;;;;;9.33;3.43;;;;;;;3.67;87.71;99975.93;1458461;88;22197;-80
2022/01/04 00:16:11;;;;;;;10.03;3.87;;;;;;;3.65;87.77;99979.13;1458971;88;21707;-81
2022/01/04 00:18:55;;;;;;;7.43;3.77;;;;;;;3.63;88.40;99971.89;1420241;88;21447;-78
2022/01/04 00:21:24;;;;;;;9.93;4.87;;;;;;;3.63;88.40;99971.89;1384161;91;21588;-79
2022/01/04 00:23:51;;;;;;;7.03;3.40;;;;;;;3.64;88.52;99963.08;1411335;91;22088;-81
2022/01/04 00:26:37;;;;;;;6.67;3.03;;;;;;;3.63;88.66;99969.27;1412180;90;21812;-80
2022/01/04 00:29:11;;;;;;;14.33;4.27;;;;;;;3.63;88.66;99969.27;1402968;90;21706;-80
2022/01/04 00:31:37;;;;;;;7.77;3.47;;;;;;;3.61;88.85;99978.05;1396585;91;23181;-80
2022/01/04 00:34:34;;;;;;;5.37;2.57;;;;;;;3.63;89.80;99982.36;1331693;96;22174;-81
2022/01/04 00:37:37;;;;;;;4.50;2.90;;;;;;;3.63;89.80;99982.36;1330969;96;21471;-81
2022/01/04 00:40:22;;;;;;;6.27;2.70;;;;;;;3.64;89.87;99976.16;1355642;95;22127;-82
2022/01/04 00:45:35;;;;;;;5.63;2.13;;;;;;;3.72;89.84;99975.12;1315239;96;21634;-81
2022/01/04 00:50:39;;;;;;;4.33;2.30;;;;;;;3.75;89.91;99976.20;1365604;94;23067;-81
2022/01/04 00:53:17;;;;;;;4.23;2.83;;;;;;;3.74;90.12;99979.75;1416067;91;22224;-81
2022/01/04 00:55:40;;;;;;;4.97;2.57;;;;;;;3.75;90.45;99975.72;1408607;91;21516;-82
2022/01/04 00:58:06;;;;;;;7.93;4.00;;;;;;;3.75;90.45;99975.72;1405478;91;21467;-81
2022/01/04 01:00:33;;;;;;;7.40;3.30;;;;;;;3.75;90.15;99977.51;1382569;91;21370;-82
2022/01/04 01:03:11;;;;;;;7.63;3.50;;;;;;;3.68;90.84;99972.36;1401301;91;22469;-82
2022/01/04 01:06:14;;;;;;;9.87;3.67;;;;;;;3.70;90.78;99973.09;1408670;91;21537;-82
2022/01/04 01:11:26;;;;;;;12.70;3.73;;;;;;;3.76;90.64;99956.91;1350501;95;21457;-82
2022/01/04 01:13:53;;;;;;;9.60;4.83;;;;;;;3.78;90.70;99955.02;1354139;96;22001;-86
2022/01/04 01:16:21;;;;;;;10.10;3.90;;;;;;;3.77;91.16;99945.48;1339619;97;21452;-82
2022/01/04 01:19:21;;;;;;;15.93;6.60;;;;;;;3.79;91.12;99946.21;1327601;95;21578;-81
2022/01/04 01:21:53;;;;;;;21.97;6.47;;;;;;;3.81;91.33;99946.45;1380887;94;22490;-78
2022/01/04 01:27:15;;;;;;;9.87;5.77;;;;;;;3.83;92.76;99942.43;1340522;94;21986;-80
2022/01/04 01:29:47;;;;;;;12.60;4.23;;;;;;;3.83;92.76;99942.43;1334572;95;22248;-79
2022/01/04 01:32:15;;;;;;;8.60;4.03;;;;;;;3.87;92.82;99930.77;1337473;94;21515;-79
2022/01/04 01:34:46;;;;;;;7.70;3.60;;;;;;;3.91;92.75;99928.25;1334318;94;21518;-80
2022/01/04 01:37:14;;;;;;;12.57;4.07;;;;;;;3.94;92.67;99929.47;1358242;94;22429;-80
2022/01/04 01:39:40;;;;;;;9.13;3.10;;;;;;;3.98;92.70;99929.47;1359430;93;22638;-80
2022/01/04 01:42:18;;;;;;;6.50;3.20;;;;;;;4.03;92.81;99923.41;1350650;93;22514;-80
2022/01/04 01:44:51;;;;;;;11.73;3.67;;;;;;;4.04;92.77;99911.97;1350399;92;21663;-79
2022/01/04 01:47:23;;;;;;;8.87;4.23;;;;;;;4.16;92.74;99909.36;1334270;93;21385;-79
2022/01/04 01:55:52;;;;;;;8.57;4.33;;;;;;;4.28;92.46;99903.98;1376745;93;22711;-80
2022/01/04 02:01:04;;;;;;;10.47;4.53;;;;;;;4.36;92.61;99905.19;1429870;89;21466;-81
2022/01/04 02:03:30;;;;;;;11.97;3.83;;;;;;;4.45;92.42;99894.80;1437008;88;22451;-81
2022/01/04 02:06:23;;;;;;;6.70;3.50;;;;;;;4.54;92.18;99897.17;1409742;87;21580;-82
2022/01/04 02:09:18;;;;;;;9.53;4.43;;;;;;;4.61;91.93;99894.92;1415750;88;22326;-83
2022/01/04 02:11:50;;;;;;;15.37;5.47;;;;;;;4.68;91.75;99890.83;1423728;88;21538;-82
2022/01/04 02:14:19;;;;;;;8.77;4.70;;;;;;;4.73;91.49;99884.75;1424669;90;22280;-83
2022/01/04 02:19:36;;;;;;;11.93;4.63;;;;;;;4.79;91.18;99880.32;1423762;88;21228;-82
2022/01/04 02:25:18;;;;;;;13.48;4.92;;;;;;;4.89;90.97;99876.01;1391133;92;21347;-81
2022/01/04 02:27:45;;;;;;;12.82;4.95;;;;;;;4.94;90.81;99862.50;1381184;92;21341;-80
2022/01/04 02:30:16;;;;;;;13.90;6.60;;;;;;;4.97;90.75;99868.33;1395006;92;21376;-80
2022/01/04 02:32:44;;;;;;;11.12;4.97;;;;;;;4.97;90.52;99864.39;1367298;92;21399;-79
2022/01/04 02:35:26;;;;;;;13.37;4.90;;;;;;;4.98;90.48;99865.25;1368899;92;21348;-81
2022/01/04 02:38:00;;;;;;;7.87;4.40;;;;;;;4.98;90.41;99855.59;1372253;92;21564;-80
2022/01/04 02:40:27;;;;;;;13.57;5.00;;;;;;;5.02;90.51;99851.39;1368664;92;21379;-80
2022/01/04 02:43:02;;;;;;;26.40;6.57;;;;;;;5.05;90.42;99848.52;1396845;92;21421;-81
2022/01/04 02:45:30;;;;;;;16.00;4.60;;;;;;;5.07;90.41;99842.67;1398681;92;21324;-80
2022/01/04 02:48:01;;;;;;;9.00;4.20;;;;;;;5.06;90.36;99840.99;1425590;90;22430;-80
2022/01/04 02:50:33;;;;;;;;;;;;;;;5.05;90.23;99843.27;1370684;91;22392;-81
2022/01/04 02:53:00;;;;;;;11.10;4.73;;;;;;;5.02;90.36;99835.17;1368017;93;20388;-80
2022/01/04 02:55:26;;;;;;;16.10;5.13;;;;;;;5.00;90.48;99824.45;1337802;90;21369;-81
2022/01/04 02:57:54;;;;;;;9.40;5.40;;;;;;;5.00;90.59;99823.14;1389300;91;21518;-81
2022/01/04 03:00:20;;;;;;;7.93;3.73;;;;;;;4.98;90.89;99824.11;1360806;91;22369;-81
2022/01/04 03:03:14;;;;;;;14.77;6.13;;;;;;;4.97;91.16;99817.19;1417185;87;21381;-81
2022/01/04 03:08:24;;;;;;;8.60;3.97;;;;;;;4.98;91.43;99798.38;1403593;91;22989;-79
2022/01/04 03:10:56;;;;;;;11.30;4.07;;;;;;;5.01;91.71;99801.22;1386688;92;22344;-79
2022/01/04 03:13:40;;;;;;;18.60;6.20;;;;;;;5.03;91.89;99794.87;1411821;89;22952;-80
2022/01/04 03:16:18;;;;;;;10.17;4.30;;;;;;;5.09;91.68;99797.45;1388273;89;21405;-80
2022/01/04 03:19:06;;;;;;;6.97;4.00;;;;;;;5.11;91.69;99791.61;1420924;90;21324;-80
2022/01/04 03:24:34;;;;;;;7.13;4.43;;;;;;;5.16;91.63;99786.83;1385090;90;21309;-80
2022/01/04 03:26:59;;;;;;;6.93;3.80;;;;;;;5.18;91.43;99780.48;1389913;91;21476;-79
2022/01/04 03:29:29;;;;;;;11.47;4.57;;;;;;;5.24;91.39;99784.88;1397226;91;21360;-80
2022/01/04 03:32:02;;;;;;;11.60;4.53;;;;;;;5.25;91.48;99799.65;1382693;91;21633;-83
2022/01/04 03:35:00;;;;;;;11.43;5.40;;;;;;;5.28;91.39;99793.66;1401190;91;21976;-83
2022/01/04 03:37:26;;;;;;;9.87;3.77;;;;;;;5.28;91.53;99796.28;1401200;89;21323;-83
2022/01/04 03:39:58;;;;;;;7.47;4.33;;;;;;;5.30;91.53;99790.43;1425195;89;21471;-83
2022/01/04 03:43:11;;;;;;;7.77;4.00;;;;;;;5.34;91.56;99792.30;1413427;89;21435;-83
2022/01/04 03:45:37;;;;;;;7.40;4.87;;;;;;;5.37;91.44;99788.94;1425195;88;22594;-82
2022/01/04 03:48:13;;;;;;;9.70;4.70;;;;;;;5.39;91.40;99791.45;1394994;92;21486;-83
2022/01/04 03:50:40;;;;;;;11.27;4.73;;;;;;;5.39;91.46;99788.34;1420572;90;21574;-83
2022/01/04 03:56:48;;;;;;;17.02;5.17;;;;;;;5.49;91.30;99784.44;1380206;90;22634;-82
2022/01/04 03:59:32;;;;;;;7.93;4.17;;;;;;;5.52;91.15;99778.09;1395495;90;21964;-82
2022/01/04 04:28:18;;;;;;;14.83;6.53;;;;;;;5.62;90.80;99782.92;1339319;97;22371;-81
2022/01/04 04:39:51;;;;;;;12.03;5.50;;;;;;;5.57;90.94;99771.49;1246171;103;21460;-81
2022/01/04 04:46:09;;;;;;;15.17;6.50;;;;;;;5.53;91.21;99773.22;1302564;100;21905;-80
2022/01/04 04:51:38;;;;;;;9.23;5.93;;;;;;;5.52;91.81;99763.66;1312923;100;21393;-80
2022/01/04 04:54:05;;;;;;;15.20;6.30;;;;;;;5.52;91.96;99763.17;1296504;99;21569;-80
2022/01/04 04:56:31;;;;;;;12.13;6.63;;;;;;;5.49;92.27;99748.17;1339488;96;21679;-81
2022/01/04 04:58:57;;;;;;;11.70;6.77;;;;;;;5.50;92.30;99756.42;1359298;93;22080;-80
2022/01/04 05:01:23;;;;;;;14.97;6.93;;;;;;;5.50;92.48;99760.36;1374504;94;21652;-80
2022/01/04 05:03:51;;;;;;;10.73;5.93;;;;;;;5.51;92.42;99754.13;1372908;93;22440;-80
2022/01/04 05:06:18;;;;;;;11.93;6.47;;;;;;;5.52;92.49;99759.72;1371782;93;21489;-80
2022/01/04 05:08:44;;;;;;;10.43;6.87;;;;;;;5.49;92.88;99762.61;1366703;93;22803;-80
2022/01/04 05:11:10;;;;;;;11.40;6.83;;;;;;;5.50;92.78;99762.98;1371008;94;21436;-80
2022/01/04 05:13:36;;;;;;;12.13;6.47;;;;;;;5.50;92.95;99776.11;1356497;95;21607;-80
2022/01/04 05:16:02;;;;;;;13.77;6.77;;;;;;;5.47;93.20;99765.84;1384882;91;22068;-80
2022/01/04 05:18:29;;;;;;;9.93;5.83;;;;;;;5.46;93.39;99770.75;1437710;89;21533;-80
2022/01/04 05:20:55;;;;;;;14.63;7.60;;;;;;;5.45;93.62;99766.48;1445686;89;21543;-80
2022/01/04 05:23:21;;;;;;;18.60;9.23;;;;;;;5.46;93.72;99769.44;1434003;89;21459;-80
2022/01/04 05:25:47;;;;;;;15.43;7.53;;;;;;;5.43;93.78;99769.22;1425776;89;21385;-80
2022/01/04 05:28:13;;;;;;;10.77;6.70;;;;;;;5.41;94.15;99772.47;1431491;89;21430;-80
2022/01/04 05:30:40;;;;;;;10.93;7.03;;;;;;;5.36;94.59;99772.84;1439570;88;21420;-79
2022/01/04 05:33:06;;;;;;;13.23;6.77;;;;;;;5.33;95.18;99782.30;1468140;88;21548;-81
2022/01/04 05:35:32;;;;;;;14.97;9.10;;;;;;;5.35;95.25;99783.46;1468949;88;21420;-84
2022/01/04 05:37:58;;;;;;;13.33;8.20;;;;;;;5.35;95.62;99785.63;1467999;89;21478;-79
2022/01/04 05:40:25;;;;;;;12.17;7.10;;;;;;;5.32;96.14;99785.03;1437792;88;21464;-79
2022/01/04 05:42:51;;;;;;;13.43;7.80;;;;;;;5.33;96.12;99788.03;1464024;88;21443;-79
2022/01/04 05:45:17;;;;;;;11.87;7.50;;;;;;;5.33;96.04;99788.86;1463179;89;21420;-79
2022/01/04 05:47:45;;;;;;;12.90;8.17;;;;;;;5.35;95.98;99791.33;1458116;89;21458;-78
2022/01/04 05:50:11;;;;;;;21.30;9.17;;;;;;;5.36;96.21;99785.97;1465370;89;22323;-79
2022/01/04 05:52:38;;;;;;;15.37;9.57;;;;;;;5.37;95.95;99790.25;1449567;89;21472;-79
2022/01/04 05:55:05;;;;;;;14.87;9.47;;;;;;;5.37;96.24;99785.00;1460109;88;21457;-80
2022/01/04 05:57:32;;;;;;;14.13;9.53;;;;;;;5.35;96.59;99779.07;1455901;89;21575;-81
2022/01/04 06:00:00;;;;;;;18.87;10.17;;;;;;;5.34;96.63;99768.20;1459775;89;21643;-81
2022/01/04 06:02:26;;;;;;;16.23;9.40;;;;;;;5.32;97.23;99754.86;1445251;89;22557;-80
2022/01/04 06:04:52;;;;;;;23.83;10.57;;;;;;;5.32;97.68;99751.78;1467314;89;21472;-80
2022/01/04 06:07:18;;;;;;;18.23;11.13;;;;;;;5.34;97.74;99751.15;1467526;89;21457;-81
2022/01/04 06:09:48;;;;;;;18.70;11.17;;;;;;;5.34;97.75;99747.21;1456222;89;21536;-82
2022/01/04 06:14:58;;;;;;;17.00;11.00;;;;;;;5.36;97.71;99743.98;1463421;88;21650;-81
2022/01/04 06:17:30;;;;;;;24.60;12.33;;;;;;;5.39;97.68;99748.97;1467519;88;21458;-81
2022/01/04 06:19:58;;;;;;;21.37;11.80;;;;;;;5.40;97.68;99742.75;1475075;88;21495;-81
2022/01/04 06:22:26;;;;;;;21.03;11.27;;;;;;;5.40;97.80;99739.30;1504168;88;21429;-81
2022/01/04 06:24:53;;;;;;;22.03;12.33;;;;;;;5.39;97.88;99735.02;1498831;88;21539;-81
2022/01/04 06:27:20;;;;;;;17.53;11.30;;;;;;;5.38;98.24;99739.45;1520311;87;21369;-81
2022/01/04 06:29:47;;;;;;;15.00;9.60;;;;;;;5.39;98.08;99738.47;1457899;88;22747;-81
2022/01/04 06:32:14;;;;;;;23.20;10.63;;;;;;;5.41;97.73;99739.18;1457840;88;21458;-81
2022/01/04 06:34:42;;;;;;;22.43;12.27;;;;;;;5.41;97.77;99733.94;1467029;88;25667;-81
2022/01/04 06:37:09;;;;;;;37.40;19.67;;;;;;;5.40;97.91;99728.80;1471331;88;21634;-81
2022/01/04 06:39:36;;;;;;;95.90;52.83;;;;;;;5.37;98.12;99729.06;1455163;88;22236;-80
2022/01/04 06:42:04;;;;;;;75.60;43.33;;;;;;;5.35;97.98;99729.22;1453809;88;21501;-81
2022/01/04 06:44:32;;;;;;;65.43;37.27;;;;;;;5.32;98.15;99724.23;1465152;88;21540;-81
2022/01/04 06:46:58;;;;;;;49.83;30.53;;;;;;;5.33;98.22;99725.05;1466634;88;21488;-81
2022/01/04 06:49:24;;;;;;;53.27;29.30;;;;;;;5.33;98.12;99724.56;1459530;88;21458;-81
2022/01/04 06:51:51;;;;;;;32.90;17.23;;;;;;;5.33;97.86;99722.43;1453321;87;21436;-81
2022/01/04 06:54:19;;;;;;;26.00;15.67;;;;;;;5.33;97.78;99720.63;1440323;89;23330;-82
2022/01/04 06:56:47;;;;;;;24.40;13.23;;;;;;;5.32;97.92;99718.98;1441018;88;21449;-81
2022/01/04 06:59:17;;;;;;;34.60;19.77;;;;;;;5.34;97.70;99718.84;1446895;89;22493;-82
2022/01/04 07:01:43;;;;;;;81.23;43.23;;;;;;;5.37;97.37;99727.27;1427801;90;21465;-82
2022/01/04 07:04:10;;;;;;;107.77;57.90;;;;;;;5.40;97.42;99725.69;1437081;88;21353;-81
2022/01/04 07:06:37;;;;;;;120.77;64.13;;;;;;;5.46;97.24;99726.13;1452446;89;21540;-81
2022/01/04 07:09:07;;;;;;;85.97;48.67;;;;;;;5.50;97.09;99719.67;1408062;89;21407;-79
2022/01/04 07:11:34;;;;;;;73.30;36.07;;;;;;;5.54;96.97;99715.33;1447195;89;21605;-80
2022/01/04 07:14:01;;;;;;;82.00;42.73;;;;;;;5.59;96.93;99711.00;1430451;89;21481;-80
2022/01/04 07:16:28;;;;;;;72.90;36.17;;;;;;;5.64;96.63;99707.50;1438464;89;21422;-80
2022/01/04 07:18:54;;;;;;;64.73;37.67;;;;;;;5.67;96.43;99705.92;1431826;91;21620;-80
2022/01/04 07:21:21;;;;;;;65.47;37.63;;;;;;;5.71;96.14;99698.11;1425776;91;23489;-79
2022/01/04 07:23:48;;;;;;;78.07;47.40;;;;;;;5.74;95.78;99695.22;1434441;91;21532;-79
2022/01/04 07:26:16;;;;;;;90.13;55.50;;;;;;;5.77;95.70;99681.81;1432090;88;21573;-79
2022/01/04 07:28:48;;;;;;;87.70;56.10;;;;;;;5.81;95.53;99677.11;1453138;88;22603;-79
2022/01/04 07:31:15;;;;;;;71.37;45.93;;;;;;;5.85;95.20;99678.52;1406730;88;21406;-78
2022/01/04 07:33:42;;;;;;;48.77;31.50;;;;;;;5.89;94.93;99683.34;1446688;89;21434;-78
2022/01/04 07:36:08;;;;;;;50.07;28.40;;;;;;;5.91;94.82;99673.21;1440262;89;21339;-79
2022/01/04 07:38:36;;;;;;;44.73;27.73;;;;;;;5.94;94.58;99675.59;1466352;88;21549;-79
2022/01/04 07:41:04;;;;;;;42.80;26.70;;;;;;;5.96;94.43;99672.36;1463812;88;21345;-81
2022/01/04 07:43:32;;;;;;;36.07;23.60;;;;;;;6.01;94.27;99675.38;1462517;88;22399;-82
2022/01/04 07:45:58;;;;;;;36.73;22.40;;;;;;;6.08;94.30;99672.57;1449651;88;21333;-84
2022/01/04 07:48:24;;;;;;;42.93;27.27;;;;;;;6.14;93.40;99677.77;1474656;87;21471;-84
2022/01/04 07:50:55;;;;;;;35.63;25.63;;;;;;;6.18;93.02;99682.59;1446010;87;22309;-82
2022/01/04 07:53:19;;;;;;;31.50;19.83;;;;;;;6.24;92.84;99679.89;1415108;89;21475;-82
2022/01/04 07:55:45;;;;;;;25.40;17.40;;;;;;;6.30;92.69;99685.91;1420422;89;21478;-82
2022/01/04 07:58:11;;;;;;;26.70;15.80;;;;;;;6.38;92.07;99680.80;1444443;89;21429;-82
2022/01/04 08:00:37;;;;;;;23.60;15.60;;;;;;;6.46;91.71;99681.42;1457518;89;22646;-82
2022/01/04 08:03:06;;;;;;;29.63;17.47;;;;;;;6.52;91.32;99680.86;1468376;87;21540;-82
2022/01/04 08:05:31;;;;;;;32.63;20.27;;;;;;;6.58;90.88;99675.53;1467200;88;21433;-80
2022/01/04 08:07:57;;;;;;;30.50;17.93;;;;;;;6.62;90.96;99669.00;1454662;88;21575;-80
2022/01/04 08:10:26;;;;;;;27.17;19.40;;;;;;;6.68;91.10;99657.95;1459289;88;21510;-83
2022/01/04 08:12:52;;;;;;;32.40;19.80;;;;;;;6.73;90.33;99661.81;1458280;88;21603;-82
2022/01/04 08:15:19;;;;;;;26.40;17.00;;;;;;;6.82;89.93;99667.17;1465733;88;21444;-81
2022/01/04 08:17:45;;;;;;;29.87;19.10;;;;;;;6.85;89.05;99655.05;1457731;88;21444;-82
2022/01/04 08:20:11;;;;;;;25.00;17.50;;;;;;;6.89;88.46;99649.87;1466940;88;22071;-81
2022/01/04 08:22:38;;;;;;;27.97;17.07;;;;;;;6.95;88.58;99650.11;1459655;88;21406;-81
2022/01/04 08:25:10;;;;;;;24.83;17.30;;;;;;;6.94;87.38;99643.20;1465182;88;21567;-81
2022/01/04 08:27:37;;;;;;;32.17;20.30;;;;;;;7.00;88.58;99650.52;1457021;88;23330;-82
2022/01/04 08:30:07;;;;;;;30.57;18.33;;;;;;;7.08;88.25;99666.06;1473044;88;21455;-81
2022/01/04 08:32:33;;;;;;;25.17;16.40;;;;;;;7.10;87.77;99675.47;1470278;88;21493;-81
2022/01/04 08:35:00;;;;;;;24.27;16.77;;;;;;;7.13;87.43;99676.50;1480123;88;21390;-81
2022/01/04 08:37:26;;;;;;;20.27;14.23;;;;;;;7.19;87.36;99672.47;1458652;88;21430;-81
2022/01/04 08:39:53;;;;;;;21.90;14.13;;;;;;;7.26;87.03;99680.63;1476176;87;22269;-81
2022/01/04 08:42:22;;;;;;;20.50;13.67;;;;;;;7.31;86.94;99669.16;1467123;86;22239;-81
2022/01/04 08:44:48;;;;;;;18.10;13.70;;;;;;;7.30;85.61;99653.03;1410632;90;22312;-83
2022/01/04 08:47:14;;;;;;;24.13;16.50;;;;;;;7.20;84.50;99656.55;1400300;92;21461;-82
2022/01/04 08:49:40;;;;;;;26.70;17.47;;;;;;;7.28;85.78;99648.39;1433472;89;22471;-82
2022/01/04 08:52:08;;;;;;;30.50;19.17;;;;;;;7.25;85.75;99649.54;1451754;89;21568;-82
2022/01/04 08:57:23;;;;;;;28.57;19.63;;;;;;;7.22;85.90;99655.92;1438564;89;21485;-82
2022/01/04 08:59:54;;;;;;;24.97;17.60;;;;;;;7.08;85.65;99651.13;1434972;89;22469;-81
2022/01/04 09:02:18;;;;;;;31.00;21.07;;;;;;;7.03;85.88;99650.72;1436395;89;21538;-81
2022/01/04 09:04:44;;;;;;;46.53;29.60;;;;;;;7.01;86.30;99654.80;1406458;91;22261;-81
2022/01/04 09:07:10;;;;;;;39.87;24.77;;;;;;;6.96;86.06;99652.25;1428463;89;22380;-82
2022/01/04 09:09:37;;;;;;;30.67;20.67;;;;;;;6.98;86.67;99652.95;1397060;90;21592;-82
2022/01/04 09:12:03;;;;;;;31.80;21.17;;;;;;;6.96;86.58;99643.90;1412940;89;22513;-82
2022/01/04 09:14:42;;;;;;;26.80;17.90;;;;;;;6.98;86.74;99646.38;1406897;92;25049;-82
2022/01/04 09:19:44;;;;;;;27.30;18.00;;;;;;;7.00;86.69;99643.94;1412796;91;21346;-81
2022/01/04 09:22:10;;;;;;;28.07;18.97;;;;;;;6.99;86.85;99641.44;1422556;89;22101;-82
2022/01/04 09:24:44;;;;;;;24.57;16.40;;;;;;;6.98;87.27;99649.00;1412929;89;21756;-82
2022/01/04 09:27:10;;;;;;;26.03;17.13;;;;;;;6.93;87.03;99644.19;1420229;89;21441;-81
2022/01/04 09:29:37;;;;;;;29.63;19.47;;;;;;;6.91;87.34;99641.36;1421356;89;21465;-80
2022/01/04 09:32:13;;;;;;;30.73;19.83;;;;;;;6.85;87.42;99634.86;1407385;91;21452;-81
2022/01/04 09:34:37;;;;;;;26.03;18.60;;;;;;;6.86;87.64;99631.74;1425986;92;21385;-82
2022/01/04 09:37:03;;;;;;;26.33;18.30;;;;;;;6.81;87.96;99628.70;1407801;92;21495;-82
2022/01/04 09:39:30;;;;;;;26.73;19.00;;;;;;;6.78;88.05;99617.48;1441676;90;21385;-82
2022/01/04 09:41:56;;;;;;;29.53;18.10;;;;;;;6.81;88.25;99615.06;1402023;89;22237;-82
2022/01/04 09:44:25;;;;;;;31.70;20.93;;;;;;;6.80;88.44;99608.64;1420877;89;21392;-83
2022/01/04 09:46:51;;;;;;;33.03;21.07;;;;;;;6.78;88.59;99606.14;1432897;90;21428;-82
2022/01/04 09:49:17;;;;;;;35.47;22.00;;;;;;;6.79;88.91;99599.93;1407837;90;21458;-81
2022/01/04 09:51:45;;;;;;;32.13;21.23;;;;;;;6.81;89.04;99588.77;1407680;90;21441;-85
2022/01/04 09:54:11;;;;;;;32.27;22.27;;;;;;;6.87;89.29;99574.20;1461156;91;21346;-81
2022/01/04 09:56:39;;;;;;;30.13;20.63;;;;;;;6.91;90.15;99571.16;1419523;91;22527;-86
2022/01/04 09:59:06;;;;;;;34.87;21.10;;;;;;;6.95;90.38;99575.14;1409438;91;21629;-86
2022/01/04 10:01:38;;;;;;;36.30;23.40;;;;;;;7.00;89.58;99565.50;1405248;92;21563;-80
2022/01/04 10:04:06;;;;;;;35.37;23.37;;;;;;;7.03;88.82;99544.17;1406456;92;21420;-82
2022/01/04 10:06:34;;;;;;;29.77;20.00;;;;;;;7.06;88.51;99537.30;1449431;89;21444;-81
2022/01/04 10:09:08;;;;;;;30.40;20.10;;;;;;;7.10;87.91;99536.02;1422286;90;21563;-82
2022/01/04 10:11:43;;;;;;;24.83;17.60;;;;;;;7.10;87.52;99529.43;1441355;88;21515;-82
2022/01/04 10:14:32;;;;;;;31.50;21.67;;;;;;;7.16;87.73;99522.30;1468866;88;21411;-82
2022/01/04 10:17:03;;;;;;;32.07;22.60;;;;;;;7.18;87.73;99515.05;1465428;88;21544;-84
2022/01/04 10:19:40;;;;;;;;;;;;;;;7.22;87.61;99519.53;1454667;88;21596;-83
2022/01/04 10:22:27;;;;;;;28.23;19.13;;;;;;;7.23;87.46;99503.60;1421690;88;20298;-82
2022/01/04 10:25:08;;;;;;;30.10;18.90;;;;;;;7.23;87.21;99497.52;1401859;89;21363;-81
2022/01/04 10:27:42;;;;;;;25.40;17.77;;;;;;;7.22;87.13;99490.12;1425972;90;21390;-82
2022/01/04 10:30:23;;;;;;;22.00;16.00;;;;;;;7.26;87.29;99476.66;1435315;89;21319;-82
2022/01/04 10:33:10;;;;;;;29.10;18.23;;;;;;;7.33;87.05;99469.80;1407437;89;21463;-82
2022/01/04 10:35:43;;;;;;;22.70;16.97;;;;;;;7.39;86.64;99469.20;1419005;90;21599;-81
2022/01/04 10:38:33;;;;;;;32.30;21.70;;;;;;;7.44;86.08;99470.89;1413399;90;21378;-82
2022/01/04 10:41:10;;;;;;;24.07;17.10;;;;;;;7.47;85.45;99460.06;1399173;91;21340;-82
2022/01/04 10:43:50;;;;;;;28.43;18.17;;;;;;;7.54;85.38;99462.44;1399304;91;21379;-81
2022/01/04 10:46:38;;;;;;;27.37;17.73;;;;;;;7.60;84.65;99463.15;1389705;90;21435;-82
2022/01/04 10:49:21;;;;;;;24.80;19.03;;;;;;;7.66;84.10;99453.32;1410702;91;22385;-82
2022/01/04 10:52:06;;;;;;;26.50;17.50;;;;;;;7.74;83.63;99456.52;1415004;89;21555;-81
2022/01/04 10:54:33;;;;;;;24.97;18.40;;;;;;;7.79;82.98;99448.13;1431142;89;21478;-80
2022/01/04 10:57:09;;;;;;;30.77;19.53;;;;;;;7.82;82.27;99433.34;1428248;89;22424;-82
2022/01/04 10:59:36;;;;;;;35.97;19.53;;;;;;;7.88;82.98;99426.12;1407977;90;21472;-82
2022/01/04 11:02:03;;;;;;;26.77;18.20;;;;;;;7.93;82.47;99430.45;1371456;94;21771;-82
2022/01/04 11:04:30;;;;;;;28.20;20.17;;;;;;;7.95;82.20;99429.81;1373757;94;21641;-82
2022/01/04 11:07:02;;;;;;;28.97;19.27;;;;;;;7.96;80.94;99419.60;1394014;92;22390;-82
2022/01/04 11:09:30;;;;;;;29.10;19.13;;;;;;;7.97;80.86;99422.59;1394531;91;22331;-80
2022/01/04 11:11:56;;;;;;;30.20;19.03;;;;;;;8.00;80.41;99416.16;1418543;91;21554;-82
2022/01/04 11:14:25;;;;;;;30.67;20.13;;;;;;;8.00;79.91;99413.05;1429584;90;22279;-82
2022/01/04 11:16:52;;;;;;;29.63;20.60;;;;;;;8.01;79.20;99403.34;1433495;90;22426;-82
2022/01/04 11:19:20;;;;;;;28.50;18.83;;;;;;;8.02;79.72;99401.03;1389632;91;21347;-82
2022/01/04 11:21:47;;;;;;;32.77;19.80;;;;;;;7.98;79.62;99405.80;1368985;92;22141;-82
2022/01/04 11:24:17;;;;;;;26.73;17.77;;;;;;;7.92;78.82;99401.15;1428153;89;21460;-82
2022/01/04 11:26:48;;;;;;;32.13;21.87;;;;;;;7.91;79.27;99388.94;1399928;91;21442;-82
2022/01/04 11:29:16;;;;;;;;;;;;;;;7.87;79.21;99387.11;1425578;92;21357;-82
2022/01/04 11:32:01;;;;;;;29.17;19.10;;;;;;;7.85;79.14;99378.56;1383932;92;20291;-82
2022/01/04 11:34:53;;;;;;;28.60;18.83;;;;;;;7.86;79.82;99382.84;1422202;89;22284;-82
2022/01/04 11:37:22;;;;;;;31.27;19.20;;;;;;;7.88;79.40;99365.54;1382210;91;21350;-82
2022/01/04 11:39:51;;;;;;;27.93;20.00;;;;;;;7.97;79.43;99354.09;1390391;92;21343;-82
2022/01/04 11:42:38;;;;;;;31.40;20.23;;;;;;;8.04;79.01;99350.32;1442493;89;21482;-83
2022/01/04 11:45:11;;;;;;;26.83;18.57;;;;;;;8.09;78.67;99346.73;1436169;89;21353;-82
2022/01/04 11:47:38;;;;;;;29.03;19.80;;;;;;;8.14;78.72;99344.42;1386957;90;21488;-82
2022/01/04 11:50:20;;;;;;;28.50;18.60;;;;;;;8.13;77.61;99339.64;1407460;91;21483;-83
2022/01/04 11:52:52;;;;;;;25.03;17.83;;;;;;;8.12;77.32;99339.33;1402040;91;21437;-82
2022/01/04 11:55:31;;;;;;;31.23;19.43;;;;;;;8.10;77.06;99337.33;1451105;91;21298;-83
2022/01/04 11:58:02;;;;;;;31.17;20.17;;;;;;;8.10;77.80;99337.83;1399825;92;23055;-83
2022/01/04 12:00:38;;;;;;;31.35;20.57;;;;;;;8.08;76.91;99335.34;1393937;92;21452;-83
2022/01/04 12:03:19;;;;;;;27.97;18.17;;;;;;;8.09;76.85;99326.97;1389345;92;22692;-82
2022/01/04 12:06:00;;;;;;;27.37;18.47;;;;;;;8.12;76.89;99330.10;1353085;94;21388;-83
2022/01/04 12:08:36;;;;;;;30.13;19.13;;;;;;;8.11;76.82;99329.78;1396465;92;21428;-83
2022/01/04 12:11:02;;;;;;;28.40;18.37;;;;;;;8.13;77.21;99333.06;1431057;91;22364;-82
2022/01/04 12:13:51;;;;;;;26.23;18.33;;;;;;;8.19;77.12;99317.11;1465113;91;21431;-83
2022/01/04 12:16:33;;;;;;;28.33;19.00;;;;;;;8.26;77.19;99318.62;1387412;91;21657;-82
2022/01/04 12:19:03;;;;;;;25.17;16.63;;;;;;;8.31;76.95;99308.41;1425812;89;22876;-82
2022/01/04 12:21:37;;;;;;;29.90;18.00;;;;;;;8.34;76.55;99301.03;1408664;90;21467;-82
2022/01/04 12:24:06;;;;;;;25.50;17.50;;;;;;;8.35;76.51;99300.53;1426375;89;21526;-80
2022/01/04 12:26:35;;;;;;;26.63;18.97;;;;;;;8.35;76.53;99295.26;1436107;89;21657;-82
2022/01/04 12:29:18;;;;;;;27.60;19.23;;;;;;;8.31;76.42;99288.14;1431943;89;21318;-82
2022/01/04 12:31:50;;;;;;;28.83;18.43;;;;;;;8.34;76.53;99281.72;1446330;89;21345;-82
2022/01/04 12:34:39;;;;;;;35.47;21.30;;;;;;;8.33;77.08;99275.63;1469572;89;21368;-82
2022/01/04 12:37:09;;;;;;;30.97;20.50;;;;;;;8.34;77.00;99279.94;1381238;90;22266;-81
2022/01/04 12:39:41;;;;;;;20.97;15.00;;;;;;;8.40;77.04;99277.18;1390697;89;21412;-87
2022/01/04 12:42:12;;;;;;;25.53;18.33;;;;;;;8.40;76.79;99275.02;1425354;89;22449;-84
2022/01/04 12:44:39;;;;;;;26.13;17.27;;;;;;;8.40;76.82;99273.23;1424557;89;21634;-83
2022/01/04 12:47:08;;;;;;;24.70;17.67;;;;;;;8.40;77.20;99274.55;1412616;90;21501;-83
2022/01/04 12:49:36;;;;;;;24.20;15.63;;;;;;;8.42;77.37;99259.36;1470494;89;21348;-83
2022/01/04 12:52:08;;;;;;;25.77;17.07;;;;;;;8.45;77.28;99252.95;1465348;89;21360;-84
2022/01/04 12:54:39;;;;;;;26.37;17.40;;;;;;;8.45;77.26;99247.17;1478416;89;22462;-83
2022/01/04 12:57:22;;;;;;;28.15;16.75;;;;;;;8.45;77.19;99237.95;1427648;88;21449;-84
2022/01/04 12:59:55;;;;;;;24.17;16.17;;;;;;;8.43;76.94;99239.94;1388430;89;21348;-83
2022/01/04 13:02:28;;;;;;;24.73;17.13;;;;;;;8.43;77.09;99218.84;1403063;90;21346;-82
2022/01/04 13:04:59;;;;;;;24.50;15.63;;;;;;;8.42;77.03;99226.41;1368154;91;22080;-83
2022/01/04 13:07:31;;;;;;;;;;;;;;;8.40;77.20;99226.23;1413005;90;21522;-83
2022/01/04 13:10:14;;;;;;;23.80;15.53;;;;;;;8.38;77.32;99218.97;1442743;89;20293;-83
2022/01/04 13:12:44;;;;;;;23.03;15.63;;;;;;;8.38;77.44;99221.11;1473708;88;21382;-83
2022/01/04 13:15:15;;;;;;;22.87;15.60;;;;;;;8.39;77.55;99224.09;1424834;89;21504;-84